Terminal Aerodrome Forecast
Issued by NWS

Home | Current Version | Previous Version | Text Only | Print | Product List | Glossary On
Versions: 1 2 3 4 5 6 7 8 9 10 11 12 13 14 15 16 17 18 19
000
FTAK31 PANC 220540
TAFADQ
TAF
PADQ 220540Z 2206/2306 27006KT P6SM BKN050
     FM221100 20011KT P6SM -SHRASN OVC035
     FM221600 26015KT P6SM BKN060
     FM222100 27015G25KT P6SM FEW060=

USA.gov is the U.S. government's official web portal to all federal, state and local government web resources and services.